Time;durP1;ratioP1;P1;durP2;ratioP2;P2;SDS_P1;SDS_P2;PMS_P1;PMS_P2;Temp;Humidity;BMP_temperature;BMP_pressure;BME280_temperature;BME280_humidity;BME280_pressure;Samples;Min_cycle;Max_cycle;Signal;HPM_P1;HPM_P2
2021/12/11 00:01:40;;;;;;;15.93;12.90;;;;;;;8.07;89.94;100111.16;1683372;83;21478;-62
2021/12/11 00:04:09;;;;;;;14.25;12.85;;;;;;;8.08;89.91;100107.51;1703331;83;21026;-61
2021/12/11 00:06:44;;;;;;;15.07;13.47;;;;;;;8.11;89.95;100124.91;1698900;83;21141;-62
2021/12/11 00:09:36;;;;;;;15.70;12.33;;;;;;;8.13;89.91;100114.92;1683862;83;21569;-60
2021/12/11 00:12:19;;;;;;;12.67;11.37;;;;;;;8.16;89.83;100107.95;1661742;83;21056;-62
2021/12/11 00:14:53;;;;;;;16.47;12.57;;;;;;;8.17;89.69;100113.56;1654701;85;21180;-63
2021/12/11 00:17:30;;;;;;;14.00;11.67;;;;;;;8.14;89.72;100120.58;1651465;85;21205;-61
2021/12/11 00:19:56;;;;;;;14.25;12.85;;;;;;;8.10;89.93;100131.20;1652482;85;21090;-63
2021/12/11 00:22:28;;;;;;;15.93;13.55;;;;;;;8.11;89.96;100108.97;1662579;83;21352;-60
2021/12/11 00:25:09;;;;;;;12.77;11.03;;;;;;;8.14;89.81;100108.12;1653505;85;21017;-60
2021/12/11 00:27:39;;;;;;;14.63;13.13;;;;;;;8.16;89.53;100108.77;1657704;85;21130;-60
2021/12/11 00:30:11;;;;;;;15.33;12.10;;;;;;;8.19;89.43;100110.22;1665716;85;21019;-60
2021/12/11 00:32:38;;;;;;;13.60;12.20;;;;;;;8.24;89.33;100105.72;1665553;85;21012;-62
2021/12/11 00:35:13;;;;;;;17.90;12.20;;;;;;;8.30;89.09;100105.81;1667942;84;21054;-62
2021/12/11 00:37:40;;;;;;;12.67;11.23;;;;;;;8.30;88.96;100128.39;1678736;84;21113;-63
2021/12/11 00:40:24;;;;;;;13.57;11.07;;;;;;;8.29;88.96;100133.39;1677839;84;21056;-61
2021/12/11 00:43:01;;;;;;;15.63;12.30;;;;;;;8.26;89.16;100098.41;1664181;84;21085;-64
2021/12/11 00:45:35;;;;;;;14.40;12.20;;;;;;;8.26;89.29;100097.07;1682451;84;21055;-61
2021/12/11 00:48:16;;;;;;;14.93;12.63;;;;;;;8.24;89.40;100097.25;1672641;84;21652;-61
2021/12/11 00:50:57;;;;;;;13.43;11.63;;;;;;;8.22;89.47;100108.55;1677107;84;21090;-60
2021/12/11 00:53:31;;;;;;;12.87;11.57;;;;;;;8.22;89.56;100108.55;1713531;82;21080;-63
2021/12/11 00:56:02;;;;;;;15.37;13.73;;;;;;;8.26;89.53;100109.84;1704966;80;21037;-60
2021/12/11 00:58:34;;;;;;;14.83;11.67;;;;;;;8.21;89.80;100109.54;1660782;84;21532;-62
2021/12/11 01:01:11;;;;;;;13.90;12.43;;;;;;;8.17;90.01;100126.84;1676847;84;21101;-62
2021/12/11 01:04:18;;;;;;;16.23;12.97;;;;;;;8.22;90.02;100123.66;1682008;84;21013;-61
2021/12/11 01:07:02;;;;;;;15.87;12.87;;;;;;;8.22;90.17;100128.47;1681226;83;21069;-62
2021/12/11 01:09:39;;;;;;;21.83;12.73;;;;;;;8.25;90.08;100121.48;1677597;84;21079;-62
2021/12/11 01:12:28;;;;;;;16.83;13.00;;;;;;;8.22;90.27;100109.88;1700499;79;21128;-65
2021/12/11 01:15:06;;;;;;;14.37;12.73;;;;;;;8.26;90.24;100109.84;1705355;83;21050;-64
2021/12/11 01:17:48;;;;;;;18.60;12.90;;;;;;;8.21;90.67;100112.20;1700676;83;21066;-62
2021/12/11 01:20:22;;;;;;;18.27;11.87;;;;;;;8.22;90.82;100119.68;1698837;83;21534;-63
2021/12/11 01:22:52;;;;;;;16.57;14.30;;;;;;;8.22;90.87;100114.38;1700301;80;21010;-62
2021/12/11 01:25:23;;;;;;;15.07;12.30;;;;;;;8.21;90.93;100120.67;1693758;83;21556;-61
2021/12/11 01:27:55;;;;;;;14.33;12.83;;;;;;;8.23;91.00;100108.89;1704239;82;21611;-64
2021/12/11 01:30:29;;;;;;;14.10;12.23;;;;;;;8.21;91.14;100104.73;1728072;81;20988;-61
2021/12/11 01:32:56;;;;;;;14.37;12.07;;;;;;;8.24;91.03;100129.11;1728888;81;21055;-62
2021/12/11 01:35:23;;;;;;;14.28;12.70;;;;;;;8.30;90.86;100152.80;1674158;81;21529;-62
2021/12/11 01:38:04;;;;;;;16.37;13.30;;;;;;;8.32;90.65;100129.03;1675663;84;21037;-62
2021/12/11 01:40:32;;;;;;;16.53;12.20;;;;;;;8.37;90.48;100110.73;1645959;86;21030;-62
2021/12/11 01:43:02;;;;;;;15.90;13.40;;;;;;;8.35;90.40;100110.61;1669916;84;21537;-62
2021/12/11 01:45:33;;;;;;;14.67;12.70;;;;;;;8.39;90.20;100116.70;1664368;83;21033;-61
2021/12/11 01:48:00;;;;;;;17.97;11.40;;;;;;;8.44;90.03;100118.02;1660915;84;21100;-61
2021/12/11 01:50:38;;;;;;;14.43;11.90;;;;;;;8.47;89.92;100112.35;1655413;85;21018;-60
2021/12/11 01:53:12;;;;;;;15.13;12.50;;;;;;;8.51;89.82;100122.94;1662881;84;21572;-60
2021/12/11 01:55:50;;;;;;;12.40;11.20;;;;;;;8.53;89.76;100115.13;1676173;83;21021;-61
2021/12/11 01:58:35;;;;;;;17.30;12.83;;;;;;;8.55;89.60;100121.56;1668253;84;21620;-60
2021/12/11 02:01:12;;;;;;;12.90;11.60;;;;;;;8.60;89.59;100122.37;1695582;80;21002;-59
2021/12/11 02:03:39;;;;;;;12.47;11.20;;;;;;;8.57;89.50;100102.31;1684271;84;21001;-62
2021/12/11 02:06:07;;;;;;;13.70;11.43;;;;;;;8.56;89.73;100105.45;1668354;84;21018;-61
2021/12/11 02:08:38;;;;;;;15.00;12.60;;;;;;;8.60;89.74;100127.69;1705851;83;21044;-61
2021/12/11 02:11:10;;;;;;;15.10;12.07;;;;;;;8.56;90.00;100122.72;1709865;83;21021;-60
2021/12/11 02:13:49;;;;;;;18.03;13.07;;;;;;;8.58;90.10;100103.95;1692927;83;21495;-60
2021/12/11 02:16:26;;;;;;;13.68;12.28;;;;;;;8.58;90.28;100130.52;1680633;83;21050;-60
2021/12/11 02:18:59;;;;;;;14.07;12.70;;;;;;;8.55;90.60;100119.76;1689905;83;21122;-66
2021/12/11 02:21:55;;;;;;;14.93;12.60;;;;;;;8.52;90.69;100114.79;1714350;83;21031;-60
2021/12/11 02:24:25;;;;;;;16.13;12.83;;;;;;;8.46;91.10;100110.72;1634993;84;21148;-59
2021/12/11 02:26:55;;;;;;;15.47;13.53;;;;;;;8.41;91.51;100125.00;1652835;84;21106;-60
2021/12/11 02:29:33;;;;;;;16.47;13.20;;;;;;;8.42;91.66;100117.38;1657178;84;21094;-62
2021/12/11 02:32:07;;;;;;;15.43;12.07;;;;;;;8.42;91.62;100110.25;1651873;84;21046;-62
2021/12/11 02:34:52;;;;;;;15.97;14.17;;;;;;;8.42;91.66;100122.68;1677801;84;21095;-61
2021/12/11 02:37:38;;;;;;;15.93;12.97;;;;;;;8.42;91.68;100120.88;1688542;84;21017;-60
2021/12/11 02:40:08;;;;;;;15.53;12.40;;;;;;;8.42;91.71;100127.99;1679826;84;21536;-62
2021/12/11 02:42:41;;;;;;;13.37;11.97;;;;;;;8.38;91.75;100120.85;1661525;84;21510;-62
2021/12/11 02:45:25;;;;;;;14.10;12.63;;;;;;;8.29;91.65;100134.72;1672392;84;21017;-60
2021/12/11 02:47:56;;;;;;;13.30;11.93;;;;;;;8.25;91.91;100132.58;1674657;84;21042;-60
2021/12/11 02:50:40;;;;;;;13.33;12.03;;;;;;;8.23;92.02;100118.18;1677275;84;21084;-62
2021/12/11 02:53:27;;;;;;;15.73;13.27;;;;;;;8.18;92.13;100137.80;1683221;84;21141;-60
2021/12/11 02:56:08;;;;;;;16.17;13.43;;;;;;;8.16;92.24;100133.16;1688607;82;21016;-60
2021/12/11 02:58:40;;;;;;;15.33;13.87;;;;;;;8.14;92.37;100129.36;1705661;82;20989;-60
2021/12/11 03:01:22;;;;;;;15.47;13.00;;;;;;;8.15;92.30;100136.30;1708411;82;21170;-60
2021/12/11 03:03:46;;;;;;;14.03;12.73;;;;;;;8.20;92.16;100135.78;1717870;82;21666;-60
2021/12/11 03:06:22;;;;;;;14.43;12.03;;;;;;;8.20;91.71;100135.78;1701435;82;21336;-63
2021/12/11 03:08:54;;;;;;;14.17;12.10;;;;;;;8.13;91.55;100118.91;1709628;82;21028;-60
2021/12/11 03:11:25;;;;;;;16.30;12.57;;;;;;;8.24;91.44;100129.11;1691104;82;21028;-62
2021/12/11 03:13:54;;;;;;;13.77;12.33;;;;;;;8.19;91.29;100130.98;1687693;82;21038;-60
2021/12/11 03:16:29;;;;;;;12.53;11.00;;;;;;;8.17;91.39;100150.25;1724006;81;21096;-66
2021/12/11 03:19:00;;;;;;;12.60;10.87;;;;;;;8.14;91.34;100118.73;1696614;83;21145;-61
2021/12/11 03:21:26;;;;;;;16.30;12.83;;;;;;;8.11;91.41;100142.16;1724474;82;21488;-60
2021/12/11 03:23:54;;;;;;;;;;;;;;;8.09;91.26;100148.14;1691528;82;21129;-60
2021/12/11 03:26:22;;;;;;;17.57;13.48;;;;;;;8.11;91.32;100120.41;1730103;81;20419;-61
2021/12/11 03:28:49;;;;;;;14.70;10.43;;;;;;;8.10;91.26;100138.69;1678086;83;21065;-61
2021/12/11 03:31:18;;;;;;;15.20;12.83;;;;;;;8.11;91.36;100136.84;1692614;83;21132;-62
2021/12/11 03:33:50;;;;;;;13.87;12.07;;;;;;;8.15;91.21;100127.01;1703990;82;21546;-61
2021/12/11 03:36:20;;;;;;;13.20;11.80;;;;;;;8.21;91.06;100141.91;1717248;83;21489;-60
2021/12/11 03:38:51;;;;;;;14.17;12.67;;;;;;;8.21;90.49;100109.54;1721124;82;21061;-60
2021/12/11 03:41:20;;;;;;;16.33;12.80;;;;;;;8.24;90.36;100137.08;1724678;82;21024;-59
2021/12/11 03:43:48;;;;;;;14.33;12.37;;;;;;;8.24;89.96;100128.30;1724076;82;21055;-61
2021/12/11 03:46:17;;;;;;;13.63;12.23;;;;;;;8.28;89.83;100126.92;1688103;83;21039;-59
2021/12/11 03:48:54;;;;;;;14.93;12.90;;;;;;;8.30;89.58;100115.63;1661728;84;21027;-60
2021/12/11 03:51:26;;;;;;;14.50;11.33;;;;;;;8.26;89.28;100115.15;1662890;84;21510;-60
2021/12/11 03:53:52;;;;;;;15.10;12.63;;;;;;;8.27;89.41;100160.62;1681689;84;21131;-59
2021/12/11 03:56:19;;;;;;;;;;;;;;;8.26;88.98;100151.00;1689489;84;21014;-61
2021/12/11 03:58:51;;;;;;;15.10;11.73;;;;;;;8.30;88.77;100139.02;1707031;82;20195;-60
2021/12/11 04:01:28;;;;;;;13.13;11.30;;;;;;;8.26;88.58;100105.04;1698622;82;21004;-62
2021/12/11 04:03:58;;;;;;;;;;;;;;;8.25;88.63;100103.38;1713294;82;21033;-61
2021/12/11 04:06:25;;;;;;;15.90;12.80;;;;;;;8.22;88.55;100119.68;1718627;82;20114;-61
2021/12/11 04:08:55;;;;;;;13.53;12.13;;;;;;;8.20;88.65;100117.20;1704358;82;21070;-62
2021/12/11 04:11:27;;;;;;;14.33;12.67;;;;;;;8.24;88.40;100113.17;1711431;82;21041;-60
2021/12/11 04:14:00;;;;;;;12.33;11.10;;;;;;;8.30;88.35;100111.64;1705246;84;21450;-63
2021/12/11 04:16:27;;;;;;;14.03;12.77;;;;;;;8.30;88.31;100120.42;1708725;82;21488;-61
2021/12/11 04:18:54;;;;;;;15.33;13.73;;;;;;;8.32;88.03;100109.62;1707920;83;21509;-61
2021/12/11 04:21:21;;;;;;;15.37;12.83;;;;;;;8.33;88.11;100108.13;1693653;82;21049;-62
2021/12/11 04:23:48;;;;;;;13.27;11.70;;;;;;;8.36;88.03;100119.73;1708144;82;21004;-61
2021/12/11 04:26:15;;;;;;;15.47;13.90;;;;;;;8.33;88.05;100116.61;1702566;82;21025;-61
2021/12/11 04:28:45;;;;;;;12.90;11.57;;;;;;;8.24;88.29;100111.85;1700246;82;21050;-61
2021/12/11 04:31:17;;;;;;;16.03;13.30;;;;;;;8.25;88.38;100108.69;1716582;82;21082;-61
2021/12/11 04:33:48;;;;;;;13.90;12.47;;;;;;;8.20;88.60;100103.92;1683581;83;21000;-68
2021/12/11 04:36:23;;;;;;;17.00;14.53;;;;;;;8.21;88.69;100100.76;1673704;84;21644;-61
2021/12/11 04:38:51;;;;;;;16.93;14.40;;;;;;;8.18;88.73;100117.38;1680409;83;21573;-63
2021/12/11 04:41:25;;;;;;;16.67;13.50;;;;;;;8.16;88.65;100095.48;1669555;84;21014;-63
2021/12/11 04:43:54;;;;;;;15.00;13.27;;;;;;;8.18;88.72;100093.98;1684739;83;21054;-62
2021/12/11 04:46:20;;;;;;;16.00;14.27;;;;;;;8.22;88.67;100122.34;1698315;83;21061;-62
2021/12/11 04:49:10;;;;;;;;;;;;;;;8.22;88.47;100103.75;1710282;83;21081;-60
2021/12/11 04:54:37;;;;;;;17.87;14.30;;;;;;;8.16;88.58;100113.25;1684866;83;21074;-63
2021/12/11 04:57:02;;;;;;;16.63;13.33;;;;;;;8.18;88.42;100112.06;1693379;82;21108;-62
2021/12/11 04:59:45;;;;;;;15.37;13.07;;;;;;;8.18;88.23;100116.05;1709702;82;21512;-60
2021/12/11 05:07:56;;;;;;;21.03;16.20;;;;;;;8.14;88.48;100109.95;1702434;82;21013;-61
2021/12/11 05:10:10;;;;;;;18.23;14.53;;;;;;;8.11;88.67;100123.57;1691030;82;21108;-61
2021/12/11 05:12:35;;;;;;;22.73;16.00;;;;;;;8.04;88.84;100124.77;1703462;83;21016;-59
2021/12/11 05:15:22;;;;;;;20.60;16.33;;;;;;;8.08;88.92;100110.64;1709213;82;21076;-62
2021/12/11 05:17:48;;;;;;;20.43;15.20;;;;;;;8.08;88.88;100120.78;1702321;82;21032;-61
2021/12/11 05:20:19;;;;;;;20.50;16.67;;;;;;;8.11;88.84;100122.24;1736212;82;21022;-61
2021/12/11 05:22:47;;;;;;;18.17;15.73;;;;;;;8.12;88.76;100109.31;1686167;83;21064;-61
2021/12/11 05:25:16;;;;;;;18.93;15.87;;;;;;;8.06;88.94;100122.79;1709226;82;21018;-61
2021/12/11 05:27:45;;;;;;;18.90;16.70;;;;;;;8.00;89.23;100140.73;1709573;82;21120;-62
2021/12/11 05:32:31;;;;;;;25.88;16.77;;;;;;;8.01;89.63;100109.73;1793722;78;22916;-61
2021/12/11 05:34:58;;;;;;;19.57;17.27;;;;;;;7.90;89.92;100122.39;1716200;81;21042;-61
2021/12/11 05:37:24;;;;;;;22.07;17.17;;;;;;;7.94;89.76;100117.55;1702842;83;21100;-61
2021/12/11 05:39:51;;;;;;;;;;;;;;;7.93;89.85;100133.98;1707117;83;21004;-61
2021/12/11 05:42:17;;;;;;;21.83;15.70;;;;;;;7.96;89.37;100125.66;1687049;83;20137;-61
2021/12/11 05:44:43;;;;;;;;;;;;;;;7.92;89.46;100116.40;1672581;83;21053;-62
2021/12/11 05:47:10;;;;;;;22.63;15.87;;;;;;;7.98;89.34;100118.34;1671494;84;20164;-62
2021/12/11 05:49:37;;;;;;;21.70;14.28;;;;;;;7.97;89.22;100116.70;1649309;85;21533;-61
2021/12/11 05:52:09;;;;;;;18.97;15.90;;;;;;;8.04;88.95;100114.66;1679384;84;21013;-63
2021/12/11 05:54:38;;;;;;;20.33;15.47;;;;;;;8.08;88.51;100114.63;1665153;85;21013;-63
2021/12/11 05:57:10;;;;;;;23.50;14.27;;;;;;;8.09;88.27;100124.25;1651016;85;21026;-61
2021/12/11 05:59:38;;;;;;;19.37;16.27;;;;;;;8.07;87.84;100133.72;1662695;85;21508;-64
2021/12/11 06:02:18;;;;;;;18.47;14.23;;;;;;;8.10;87.43;100148.45;1645995;85;21674;-64
2021/12/11 06:04:50;;;;;;;17.23;14.27;;;;;;;8.13;87.25;100139.64;1632395;85;21534;-63
2021/12/11 06:07:21;;;;;;;16.70;14.47;;;;;;;8.13;87.23;100121.56;1654776;85;21076;-61
2021/12/11 06:09:52;;;;;;;19.27;13.97;;;;;;;8.14;87.05;100124.55;1644315;85;21101;-61
2021/12/11 06:12:21;;;;;;;17.23;12.90;;;;;;;8.17;86.86;100122.85;1649925;85;21525;-62
2021/12/11 06:14:50;;;;;;;16.57;13.90;;;;;;;8.17;86.84;100130.82;1647800;85;21097;-61
2021/12/11 06:17:24;;;;;;;18.50;14.20;;;;;;;8.21;86.70;100122.81;1647498;85;21006;-60
2021/12/11 06:19:53;;;;;;;17.27;14.47;;;;;;;8.25;86.48;100141.40;1649541;85;21002;-60
2021/12/11 06:22:24;;;;;;;17.87;13.13;;;;;;;8.25;86.11;100117.98;1649409;85;21041;-61
2021/12/11 06:24:53;;;;;;;16.50;13.53;;;;;;;8.27;85.97;100135.41;1650393;85;21587;-61
2021/12/11 06:27:21;;;;;;;17.60;14.03;;;;;;;8.30;85.73;100111.13;1644226;85;21081;-64
2021/12/11 06:29:47;;;;;;;16.10;13.23;;;;;;;8.24;85.36;100123.80;1656075;85;21447;-61
2021/12/11 06:32:14;;;;;;;17.70;13.98;;;;;;;8.18;85.49;100124.52;1633854;86;21122;-61
2021/12/11 06:34:40;;;;;;;;;;;;;;;8.21;85.46;100122.81;1655890;85;21069;-61
2021/12/11 06:37:10;;;;;;;22.80;14.80;;;;;;;8.24;85.47;100132.27;1655179;85;20141;-63
2021/12/11 06:39:37;;;;;;;18.37;14.07;;;;;;;8.14;85.65;100144.47;1664838;85;21541;-63
2021/12/11 06:42:06;;;;;;;18.90;14.83;;;;;;;8.18;85.49;100112.06;1664054;85;21026;-63
2021/12/11 06:44:33;;;;;;;18.90;15.63;;;;;;;8.18;85.40;100143.92;1657625;85;21124;-65
2021/12/11 06:47:04;;;;;;;18.67;15.57;;;;;;;8.23;85.28;100145.21;1620598;87;21025;-62
2021/12/11 06:49:34;;;;;;;18.10;15.17;;;;;;;8.24;84.91;100119.00;1622292;87;21089;-68
2021/12/11 06:52:06;;;;;;;20.10;16.70;;;;;;;8.27;85.00;100125.26;1625976;87;21158;-63
2021/12/11 06:54:34;;;;;;;19.13;16.00;;;;;;;8.28;84.88;100139.69;1622698;87;21121;-62
2021/12/11 06:57:00;;;;;;;19.50;16.40;;;;;;;8.32;84.89;100137.52;1632516;86;21049;-63
2021/12/11 06:59:27;;;;;;;18.65;15.48;;;;;;;8.29;84.69;100144.02;1639605;86;21045;-61
2021/12/11 07:01:53;;;;;;;19.95;15.45;;;;;;;8.33;84.79;100116.61;1622222;87;21057;-64
2021/12/11 07:04:20;;;;;;;18.43;15.07;;;;;;;8.27;84.79;100095.57;1616376;87;21077;-64
2021/12/11 07:06:51;;;;;;;18.87;15.33;;;;;;;8.39;84.66;100119.86;1639058;86;21134;-61
2021/12/11 07:09:21;;;;;;;16.27;14.63;;;;;;;8.42;84.58;100134.16;1638943;86;21015;-62
2021/12/11 07:11:51;;;;;;;19.43;14.90;;;;;;;8.39;84.36;100115.37;1658636;85;21056;-62
2021/12/11 07:14:21;;;;;;;16.53;14.77;;;;;;;8.35;84.55;100124.70;1652583;85;21065;-63
2021/12/11 07:16:48;;;;;;;18.40;15.13;;;;;;;8.33;84.67;100136.01;1675677;85;21058;-63
2021/12/11 07:19:16;;;;;;;19.23;15.40;;;;;;;8.28;84.90;100145.00;1647843;85;21036;-62
2021/12/11 07:21:42;;;;;;;19.73;15.73;;;;;;;8.30;84.90;100132.37;1642777;85;21009;-62
2021/12/11 07:24:14;;;;;;;15.53;13.93;;;;;;;8.26;84.92;100136.91;1649682;86;21066;-61
2021/12/11 07:26:41;;;;;;;21.37;15.87;;;;;;;8.28;84.96;100136.22;1644027;86;21549;-62
2021/12/11 07:29:13;;;;;;;16.97;15.20;;;;;;;8.28;84.98;100142.34;1661970;85;21592;-62
2021/12/11 07:31:44;;;;;;;18.80;14.37;;;;;;;8.31;84.85;100134.03;1640300;85;21085;-63
2021/12/11 07:34:12;;;;;;;18.10;15.63;;;;;;;8.33;84.78;100123.23;1667487;84;21001;-63
2021/12/11 07:36:39;;;;;;;16.17;13.47;;;;;;;8.35;84.43;100141.97;1672459;84;21075;-61
2021/12/11 07:39:11;;;;;;;22.93;15.80;;;;;;;8.31;84.25;100130.05;1674859;84;21192;-60
2021/12/11 07:41:38;;;;;;;20.10;14.67;;;;;;;8.33;84.27;100137.84;1676376;84;21113;-62
2021/12/11 07:44:05;;;;;;;17.17;13.67;;;;;;;8.30;84.33;100129.72;1670319;84;21064;-61
2021/12/11 07:46:34;;;;;;;15.03;13.40;;;;;;;8.31;84.38;100149.97;1626741;86;21004;-63
2021/12/11 07:49:03;;;;;;;19.57;14.17;;;;;;;8.29;84.30;100144.02;1631060;86;21536;-61
2021/12/11 07:51:32;;;;;;;20.30;15.77;;;;;;;8.17;84.63;100189.23;1626392;86;21083;-61
2021/12/11 07:53:59;;;;;;;21.27;16.07;;;;;;;8.16;84.88;100124.69;1639721;86;21530;-61
2021/12/11 07:56:26;;;;;;;17.20;15.00;;;;;;;8.15;84.69;100144.77;1633324;84;21813;-62
2021/12/11 07:58:57;;;;;;;18.40;15.17;;;;;;;8.08;85.27;100127.89;1634505;86;21026;-61
2021/12/11 08:01:25;;;;;;;19.17;16.37;;;;;;;8.06;85.06;100126.77;1617487;85;21113;-61
2021/12/11 08:03:51;;;;;;;18.07;15.27;;;;;;;8.05;85.17;100136.23;1633881;86;21035;-64
2021/12/11 08:06:17;;;;;;;20.17;15.85;;;;;;;8.01;85.28;100113.70;1632512;86;21032;-62
2021/12/11 08:08:45;;;;;;;16.23;14.53;;;;;;;8.04;85.27;100148.66;1632466;86;21106;-63
2021/12/11 08:11:17;;;;;;;17.50;15.13;;;;;;;8.05;85.20;100134.39;1631099;84;21070;-65
2021/12/11 08:13:47;;;;;;;17.43;15.37;;;;;;;7.97;85.38;100162.33;1637081;86;21070;-63
2021/12/11 08:16:19;;;;;;;16.10;14.43;;;;;;;7.98;87.27;100140.08;1627134;85;21359;-61
2021/12/11 08:18:45;;;;;;;21.50;16.33;;;;;;;7.92;86.72;100140.80;1628793;86;21769;-63
2021/12/11 08:21:12;;;;;;;16.75;14.43;;;;;;;7.82;87.77;100149.46;1635063;86;20971;-62
2021/12/11 08:23:44;;;;;;;15.78;14.10;;;;;;;7.80;87.75;100145.69;1628480;85;21099;-61
2021/12/11 08:26:07;;;;;;;16.63;14.30;;;;;;;7.83;87.76;100131.23;1651021;85;21051;-64
2021/12/11 08:28:34;;;;;;;15.85;14.03;;;;;;;7.84;86.98;100157.59;1651579;85;21206;-63
2021/12/11 08:31:00;;;;;;;;;;;;;;;7.85;86.93;100157.91;1646162;85;21099;-64
2021/12/11 08:33:27;;;;;;;16.77;14.27;;;;;;;7.72;90.00;100131.97;1645524;84;20094;-67
2021/12/11 08:35:55;;;;;;;16.62;13.45;;;;;;;7.68;90.96;100128.49;1644221;85;21624;-62
2021/12/11 08:38:21;;;;;;;18.43;14.33;;;;;;;7.71;90.23;100162.14;1638452;85;20975;-63
2021/12/11 08:40:55;;;;;;;16.48;14.28;;;;;;;7.72;89.17;100124.00;1640091;85;21585;-63
2021/12/11 08:43:23;;;;;;;14.73;12.73;;;;;;;7.73;88.72;100139.41;1646420;85;21035;-62
2021/12/11 08:46:09;;;;;;;14.10;12.00;;;;;;;7.66;88.89;100125.19;1646707;85;21917;-64
2021/12/11 08:48:40;;;;;;;17.10;13.10;;;;;;;7.58;89.01;100126.06;1652150;85;21001;-62
2021/12/11 08:51:12;;;;;;;18.77;14.07;;;;;;;7.47;89.84;100141.04;1655205;85;21091;-61
2021/12/11 08:53:39;;;;;;;17.10;13.97;;;;;;;7.42;90.30;100136.23;1651393;85;20984;-62
2021/12/11 08:56:09;;;;;;;15.90;11.23;;;;;;;7.40;89.97;100126.30;1645703;85;21018;-63
2021/12/11 08:58:38;;;;;;;15.83;14.00;;;;;;;7.29;90.38;100165.97;1660727;85;21011;-64
2021/12/11 09:01:31;;;;;;;15.60;13.17;;;;;;;7.26;90.63;100144.28;1629859;86;21033;-61
2021/12/11 09:04:17;;;;;;;17.70;12.23;;;;;;;7.26;90.72;100139.80;1624699;87;21011;-61
2021/12/11 09:07:04;;;;;;;14.13;12.63;;;;;;;7.24;91.86;100139.14;1629144;86;21118;-60
2021/12/11 09:09:51;;;;;;;18.10;15.45;;;;;;;7.22;90.92;100117.28;1626060;86;21568;-64
2021/12/11 09:12:29;;;;;;;22.47;14.03;;;;;;;7.19;90.91;100132.19;1631007;86;21068;-60
2021/12/11 09:15:00;;;;;;;17.00;13.37;;;;;;;7.17;91.21;100132.36;1644130;85;21015;-62
2021/12/11 09:17:44;;;;;;;14.80;13.07;;;;;;;7.14;90.73;100104.89;1639691;85;21541;-63
2021/12/11 09:20:33;;;;;;;17.83;13.37;;;;;;;7.16;90.63;100161.20;1644415;85;20970;-63
2021/12/11 09:23:05;;;;;;;16.60;14.00;;;;;;;7.15;90.07;100128.23;1640684;85;20973;-61
2021/12/11 09:25:41;;;;;;;16.73;12.17;;;;;;;7.15;89.99;100138.33;1658718;85;21080;-63
2021/12/11 09:28:19;;;;;;;17.15;14.53;;;;;;;7.15;89.77;100134.36;1664747;85;21414;-61
2021/12/11 09:31:03;;;;;;;18.60;14.43;;;;;;;7.17;89.84;100116.95;1664522;85;21043;-63
2021/12/11 09:33:34;;;;;;;19.40;13.93;;;;;;;7.21;89.67;100136.34;1658424;85;21634;-62
2021/12/11 09:36:12;;;;;;;20.07;13.63;;;;;;;7.25;89.37;100146.59;1653568;86;20986;-60
2021/12/11 09:38:44;;;;;;;20.23;16.67;;;;;;;7.14;90.18;100116.81;1637618;86;21531;-61
2021/12/11 09:41:21;;;;;;;20.27;16.37;;;;;;;7.12;90.67;100129.41;1633115;86;21486;-60
2021/12/11 09:43:59;;;;;;;21.00;15.20;;;;;;;7.12;90.89;100151.09;1643727;85;21042;-60
2021/12/11 09:46:33;;;;;;;23.33;13.97;;;;;;;7.05;90.66;100132.41;1632588;86;21025;-62
2021/12/11 09:49:04;;;;;;;21.43;15.03;;;;;;;6.99;90.24;100139.22;1639824;86;21052;-59
2021/12/11 09:51:39;;;;;;;20.40;14.10;;;;;;;6.98;90.37;100101.78;1639224;86;21509;-59
2021/12/11 09:54:08;;;;;;;19.50;13.77;;;;;;;6.92;90.49;100114.90;1636897;86;21134;-62
2021/12/11 09:56:46;;;;;;;18.03;14.13;;;;;;;6.92;90.57;100175.84;1636377;86;21057;-59
2021/12/11 09:59:17;;;;;;;21.27;11.77;;;;;;;6.93;90.33;100151.83;1656308;85;21084;-72
2021/12/11 10:01:48;;;;;;;16.63;12.97;;;;;;;6.92;90.07;100130.80;1655099;85;21565;-61
2021/12/11 10:04:28;;;;;;;15.50;12.97;;;;;;;6.96;90.02;100132.11;1630094;86;21077;-59
2021/12/11 10:09:28;;;;;;;15.50;11.50;;;;;;;6.94;89.42;100112.91;1629582;86;21025;-62
2021/12/11 10:12:05;;;;;;;18.47;12.40;;;;;;;6.92;89.31;100114.90;1631433;86;21019;-61
2021/12/11 10:14:52;;;;;;;17.57;14.27;;;;;;;6.93;89.63;100120.03;1633130;86;21557;-59
2021/12/11 10:17:34;;;;;;;15.13;11.80;;;;;;;6.89;89.99;100130.62;1627404;86;21077;-61
2021/12/11 10:20:03;;;;;;;20.00;14.50;;;;;;;6.88;90.26;100129.48;1622280;86;21085;-59
2021/12/11 10:22:34;;;;;;;16.27;11.03;;;;;;;6.91;90.11;100131.30;1645900;86;21042;-61
2021/12/11 10:25:04;;;;;;;15.87;12.50;;;;;;;6.85;89.33;100145.71;1626800;86;21556;-61
2021/12/11 10:27:32;;;;;;;17.97;13.63;;;;;;;6.87;88.92;100177.66;1626590;86;21065;-61
2021/12/11 10:30:03;;;;;;;20.73;12.37;;;;;;;6.88;88.67;100150.69;1633936;86;21394;-59
2021/12/11 10:32:32;;;;;;;18.23;13.23;;;;;;;6.88;88.62;100148.03;1617842;86;21229;-62
2021/12/11 10:35:04;;;;;;;17.13;12.13;;;;;;;6.91;88.46;100131.30;1636920;85;21063;-60
2021/12/11 10:37:36;;;;;;;15.13;11.57;;;;;;;6.91;88.79;100127.33;1626279;86;21057;-61
2021/12/11 10:40:17;;;;;;;15.57;11.93;;;;;;;6.86;88.76;100138.11;1616745;86;21083;-62
2021/12/11 10:42:49;;;;;;;15.57;11.83;;;;;;;6.82;88.95;100129.16;1624680;86;21025;-61
2021/12/11 10:45:16;;;;;;;16.00;12.87;;;;;;;6.82;89.08;100147.70;1635171;86;21014;-60
2021/12/11 10:47:48;;;;;;;16.93;11.23;;;;;;;6.82;89.17;100137.11;1621537;86;21069;-62
2021/12/11 10:50:29;;;;;;;16.57;12.70;;;;;;;6.79;89.34;100140.08;1638692;86;21607;-61
2021/12/11 10:52:57;;;;;;;17.73;13.30;;;;;;;6.69;89.89;100130.69;1636526;86;21047;-61
2021/12/11 10:55:28;;;;;;;15.67;13.27;;;;;;;6.69;90.00;100152.70;1627528;85;21273;-61
2021/12/11 10:57:59;;;;;;;16.27;13.57;;;;;;;6.68;89.96;100135.13;1636596;86;21061;-62
2021/12/11 11:00:31;;;;;;;15.03;12.50;;;;;;;6.67;89.75;100142.77;1636315;86;21061;-62
2021/12/11 11:02:59;;;;;;;18.40;11.60;;;;;;;6.89;89.05;100116.55;1620239;86;21090;-58
2021/12/11 11:05:29;;;;;;;13.63;12.23;;;;;;;6.64;89.72;100127.20;1633573;86;21067;-62
2021/12/11 11:07:57;;;;;;;13.80;10.93;;;;;;;6.59;90.49;100148.05;1628136;86;22168;-59
2021/12/11 11:10:28;;;;;;;11.50;10.40;;;;;;;6.60;90.67;100141.78;1633699;86;21042;-58
2021/12/11 11:12:58;;;;;;;12.67;10.20;;;;;;;6.60;90.83;100123.23;1625848;86;21025;-60
2021/12/11 11:15:28;;;;;;;9.33;8.43;;;;;;;6.60;91.05;100121.41;1618051;86;21120;-61
2021/12/11 11:17:55;;;;;;;11.37;9.60;;;;;;;6.62;91.12;100136.63;1632262;86;21006;-60
2021/12/11 11:20:30;;;;;;;9.57;8.67;;;;;;;6.63;91.17;100134.83;1647312;86;21561;-60
2021/12/11 11:22:57;;;;;;;8.97;8.17;;;;;;;6.63;91.08;100126.38;1636561;86;21108;-60
2021/12/11 11:25:29;;;;;;;9.80;8.80;;;;;;;6.64;91.13;100148.39;1622140;86;21055;-64
2021/12/11 11:28:03;;;;;;;9.73;8.57;;;;;;;6.62;90.90;100133.98;1636197;86;20981;-62
2021/12/11 11:30:38;;;;;;;10.27;9.10;;;;;;;6.59;91.05;100119.77;1640535;86;21113;-59
2021/12/11 11:33:07;;;;;;;10.23;8.40;;;;;;;6.55;91.63;100134.82;1647689;85;21091;-61
2021/12/11 11:35:42;;;;;;;9.57;8.67;;;;;;;6.53;91.43;100142.11;1638368;86;21162;-61
2021/12/11 11:38:08;;;;;;;11.30;9.90;;;;;;;6.45;91.52;100132.35;1636872;86;21049;-61
2021/12/11 11:40:38;;;;;;;11.93;10.23;;;;;;;6.42;91.79;100126.91;1643306;86;21049;-60
2021/12/11 11:43:05;;;;;;;12.20;11.00;;;;;;;6.43;91.59;100129.86;1638256;86;21100;-59
2021/12/11 11:45:33;;;;;;;14.10;10.13;;;;;;;6.48;91.56;100143.09;1632923;86;21457;-61
2021/12/11 11:47:59;;;;;;;11.23;10.17;;;;;;;6.43;91.43;100136.48;1629011;86;20986;-66
2021/12/11 11:50:31;;;;;;;12.00;10.53;;;;;;;6.51;91.26;100143.59;1634855;86;21062;-62
2021/12/11 11:52:59;;;;;;;10.33;9.27;;;;;;;6.57;91.12;100146.07;1626712;86;21017;-60
2021/12/11 11:55:31;;;;;;;11.67;10.47;;;;;;;6.58;90.78;100151.71;1630939;86;21408;-60